Time;durP1;ratioP1;P1;durP2;ratioP2;P2;SDS_P1;SDS_P2;PMS_P1;PMS_P2;Temp;Humidity;BMP_temperature;BMP_pressure;BME280_temperature;BME280_humidity;BME280_pressure;Samples;Min_cycle;Max_cycle;Signal;HPM_P1;HPM_P2
2020/12/10 00:02:54;;;;;;;59.10;36.50;;;;;;;2.19;83.21;99869.88;2912839;81;21121;-69
2020/12/10 00:06:57;;;;;;;71.35;36.03;;;;;;;2.17;83.06;99863.87;2906444;80;21470;-66
2020/12/10 00:11:00;;;;;;;66.62;40.73;;;;;;;2.16;83.00;99858.23;2882181;82;21156;-67
2020/12/10 00:15:10;;;;;;;57.62;36.33;;;;;;;2.14;82.96;99858.30;2913235;81;21087;-66
2020/12/10 00:19:28;;;;;;;76.37;39.83;;;;;;;2.14;83.08;99856.16;2903827;80;21590;-66
2020/12/10 00:23:31;;;;;;;81.65;43.38;;;;;;;2.12;83.06;99860.17;2904981;81;21167;-65
2020/12/10 00:27:37;;;;;;;70.35;43.00;;;;;;;2.12;83.19;99860.17;2933043;81;21164;-66
2020/12/10 00:31:39;;;;;;;61.48;30.05;;;;;;;2.08;83.50;99868.31;2965214;79;21595;-67
2020/12/10 00:35:43;;;;;;;70.12;38.85;;;;;;;2.09;83.54;99860.34;2932017;78;21104;-67
2020/12/10 00:39:45;;;;;;;69.30;39.95;;;;;;;2.10;83.70;99861.20;2913772;81;21197;-67
2020/12/10 00:43:48;;;;;;;84.22;46.13;;;;;;;2.15;83.82;99851.30;2949429;80;21177;-67
2020/12/10 00:47:51;;;;;;;74.42;47.30;;;;;;;2.24;83.70;99851.27;2949244;80;21157;-67
2020/12/10 00:51:54;;;;;;;69.05;39.18;;;;;;;2.32;83.41;99846.44;2949420;80;21129;-66
2020/12/10 00:55:57;;;;;;;69.00;41.50;;;;;;;2.31;83.12;99839.97;2949538;80;21137;-67
2020/12/10 01:00:00;;;;;;;59.30;36.58;;;;;;;2.32;83.04;99841.67;2949484;80;21093;-65
2020/12/10 01:04:03;;;;;;;68.12;37.80;;;;;;;2.27;82.75;99834.03;2949386;80;21159;-66
2020/12/10 01:08:06;;;;;;;62.40;37.35;;;;;;;2.21;82.61;99829.12;2949123;80;21144;-68
2020/12/10 01:12:09;;;;;;;58.28;36.88;;;;;;;2.16;82.57;99824.58;2949079;80;21157;-66
2020/12/10 01:16:12;;;;;;;61.08;33.80;;;;;;;2.07;82.66;99830.72;2949618;80;21541;-67
2020/12/10 01:20:15;;;;;;;69.40;37.17;;;;;;;2.02;82.82;99827.50;2949322;80;21572;-69
2020/12/10 01:24:18;;;;;;;71.65;39.10;;;;;;;1.96;82.82;99824.73;2949081;80;21145;-65
2020/12/10 01:28:21;;;;;;;55.60;33.15;;;;;;;1.91;83.03;99828.08;2949351;80;21127;-65
2020/12/10 01:32:25;;;;;;;70.10;41.02;;;;;;;1.88;83.13;99816.89;2949273;80;21462;-66
2020/12/10 01:36:30;;;;;;;57.80;37.35;;;;;;;1.87;83.33;99817.81;2949015;79;21145;-68
2020/12/10 01:40:34;;;;;;;67.17;35.33;;;;;;;1.82;83.31;99809.73;2949456;80;21114;-68
2020/12/10 01:44:38;;;;;;;80.03;41.30;;;;;;;1.78;83.58;99809.52;2949184;80;21768;-68
2020/12/10 01:48:43;;;;;;;77.92;42.55;;;;;;;1.80;83.70;99818.60;2948931;80;21109;-65
2020/12/10 01:52:52;;;;;;;65.72;38.25;;;;;;;1.84;83.83;99807.88;2927639;81;22220;-66
2020/12/10 01:56:55;;;;;;;66.90;38.73;;;;;;;1.92;83.70;99811.86;2928331;81;21160;-66
2020/12/10 02:00:58;;;;;;;62.45;36.00;;;;;;;1.98;83.58;99818.11;2874956;82;21144;-66
2020/12/10 02:05:01;;;;;;;77.10;43.30;;;;;;;2.03;83.75;99800.33;2930450;79;21122;-66
2020/12/10 02:09:04;;;;;;;70.85;43.33;;;;;;;2.11;83.56;99795.98;2978944;79;21163;-67
2020/12/10 02:13:07;;;;;;;75.05;40.35;;;;;;;2.17;83.50;99796.13;2913344;81;21125;-67
2020/12/10 02:17:10;;;;;;;70.50;41.02;;;;;;;2.15;83.04;99792.25;2911488;81;21184;-68
2020/12/10 02:21:13;;;;;;;58.83;41.40;;;;;;;2.14;83.04;99787.94;2911393;81;21145;-67
2020/12/10 02:25:16;;;;;;;68.40;35.98;;;;;;;2.16;82.83;99783.90;2918774;81;21108;-68
2020/12/10 02:29:19;;;;;;;87.25;40.08;;;;;;;2.17;82.76;99771.19;2918484;81;21112;-65
2020/12/10 02:33:22;;;;;;;69.15;42.20;;;;;;;2.17;82.60;99775.13;2912278;81;21138;-68
2020/12/10 02:37:25;;;;;;;75.45;38.13;;;;;;;2.18;82.70;99759.76;2964966;79;21101;-67
2020/12/10 02:41:30;;;;;;;75.62;42.43;;;;;;;2.20;82.75;99759.20;2918796;81;22232;-66
2020/12/10 02:45:33;;;;;;;66.33;36.20;;;;;;;2.13;82.46;99749.03;2955284;80;21228;-66
2020/12/10 02:49:36;;;;;;;59.00;32.75;;;;;;;2.06;82.29;99759.49;2955300;80;21184;-67
2020/12/10 02:53:39;;;;;;;64.42;35.20;;;;;;;2.03;82.17;99752.24;2955243;80;21145;-68
2020/12/10 02:57:42;;;;;;;63.63;34.83;;;;;;;1.95;82.24;99744.80;2955096;80;21145;-68
2020/12/10 03:01:45;;;;;;;62.30;38.02;;;;;;;1.88;82.25;99743.45;2955105;80;21136;-66
2020/12/10 03:05:48;;;;;;;63.23;34.90;;;;;;;1.81;82.57;99740.30;2955431;80;21149;-69
2020/12/10 03:09:53;;;;;;;57.15;32.05;;;;;;;1.78;82.81;99733.47;2955435;80;21153;-68
2020/12/10 03:13:55;;;;;;;62.13;31.65;;;;;;;1.77;82.85;99734.40;2919416;80;21146;-67
2020/12/10 03:17:59;;;;;;;71.97;40.70;;;;;;;1.73;82.75;99728.91;2933383;81;21104;-66
2020/12/10 03:22:02;;;;;;;71.97;35.05;;;;;;;1.72;83.04;99736.40;2933386;81;21065;-65
2020/12/10 03:26:05;;;;;;;69.50;39.03;;;;;;;1.72;83.22;99731.16;2907480;80;21160;-67
2020/12/10 03:30:08;;;;;;;74.40;37.03;;;;;;;1.74;83.31;99727.16;2929606;80;21170;-66
2020/12/10 03:34:11;;;;;;;72.97;41.68;;;;;;;1.75;83.26;99717.88;2925746;80;21196;-66
2020/12/10 03:38:14;;;;;;;66.57;36.13;;;;;;;1.77;83.42;99720.42;2925078;81;21143;-66
2020/12/10 03:42:17;;;;;;;78.47;42.48;;;;;;;1.80;83.40;99715.01;2924784;81;21155;-68
2020/12/10 03:46:21;;;;;;;74.30;40.20;;;;;;;1.83;83.36;99701.27;2924990;81;21134;-66
2020/12/10 03:50:24;;;;;;;74.77;41.37;;;;;;;1.83;83.26;99703.89;2924505;81;21131;-67
2020/12/10 03:54:27;;;;;;;70.62;41.35;;;;;;;1.87;83.35;99711.14;2922459;80;21290;-66
2020/12/10 03:58:30;;;;;;;70.22;37.55;;;;;;;1.89;83.06;99708.41;2946568;80;21200;-68
2020/12/10 04:02:33;;;;;;;78.75;41.55;;;;;;;1.92;82.96;99712.17;2952393;79;21139;-68
2020/12/10 04:06:42;;;;;;;74.58;43.45;;;;;;;1.91;82.84;99714.42;2906822;81;21460;-68
2020/12/10 04:10:41;;;;;;;78.40;41.15;;;;;;;1.89;82.95;99705.80;2909801;81;21144;-67
2020/12/10 04:14:44;;;;;;;72.58;41.25;;;;;;;1.90;83.00;99711.42;2920591;81;21166;-69
2020/12/10 04:18:46;;;;;;;65.00;39.42;;;;;;;1.88;83.04;99702.79;2920280;80;21127;-69
2020/12/10 04:22:49;;;;;;;70.28;37.65;;;;;;;1.85;83.21;99705.97;2910075;81;21112;-69
2020/12/10 04:26:52;;;;;;;59.38;36.58;;;;;;;1.90;83.28;99702.23;2882145;81;21135;-67
2020/12/10 04:30:55;;;;;;;70.97;41.35;;;;;;;1.89;82.83;99692.23;2910190;81;21151;-68
2020/12/10 04:34:58;;;;;;;61.08;37.67;;;;;;;1.87;82.67;99686.67;2918632;81;21180;-66
2020/12/10 04:39:01;;;;;;;74.58;39.38;;;;;;;1.84;82.84;99691.16;2920587;81;21139;-69
2020/12/10 04:43:08;;;;;;;69.37;37.65;;;;;;;1.83;82.78;99686.84;2920498;81;21598;-67
2020/12/10 04:47:11;;;;;;;70.52;40.25;;;;;;;1.81;82.74;99697.03;2920364;81;21180;-68
2020/12/10 04:51:15;;;;;;;76.72;40.05;;;;;;;1.79;83.02;99691.02;2920286;80;21191;-67
2020/12/10 04:55:18;;;;;;;72.30;38.70;;;;;;;1.79;83.00;99689.27;2920122;80;21139;-68
2020/12/10 04:59:23;;;;;;;65.03;37.93;;;;;;;1.82;82.88;99688.23;2920801;81;21135;-68
2020/12/10 05:03:26;;;;;;;82.10;41.50;;;;;;;1.79;82.82;99687.09;2920389;81;21142;-67
2020/12/10 05:07:41;;;;;;;70.95;42.05;;;;;;;1.73;82.89;99686.95;2920513;81;21105;-67
2020/12/10 05:11:44;;;;;;;61.80;36.63;;;;;;;1.73;82.99;99684.81;2920570;81;21543;-67
2020/12/10 05:15:47;;;;;;;74.50;37.05;;;;;;;1.74;83.10;99690.44;2920680;81;21168;-71
2020/12/10 05:19:58;;;;;;;69.85;34.70;;;;;;;1.72;82.91;99689.20;2920403;81;21187;-69
2020/12/10 05:24:06;;;;;;;63.35;36.63;;;;;;;1.70;82.85;99688.44;2919964;80;21591;-70
2020/12/10 05:28:09;;;;;;;62.78;35.88;;;;;;;1.70;82.85;99688.44;2915527;80;21591;-69
2020/12/10 05:32:43;;;;;;;81.42;41.53;;;;;;;1.69;82.96;99692.86;2919851;80;21170;-68
2020/12/10 05:36:47;;;;;;;59.33;36.25;;;;;;;1.70;82.94;99688.44;2965356;80;21194;-68
2020/12/10 05:40:50;;;;;;;81.00;39.45;;;;;;;1.60;82.75;99687.27;2917072;81;21192;-66
2020/12/10 05:44:53;;;;;;;74.42;38.58;;;;;;;1.61;83.05;99692.41;2916443;81;21125;-68
2020/12/10 05:48:57;;;;;;;72.03;33.45;;;;;;;1.62;83.05;99689.34;2962114;80;21166;-68
2020/12/10 05:53:07;;;;;;;62.15;35.55;;;;;;;1.61;83.15;99684.55;2962033;80;21225;-66
2020/12/10 05:57:11;;;;;;;54.65;35.58;;;;;;;1.60;83.24;99676.78;2962112;80;21158;-68
2020/12/10 06:01:34;;;;;;;68.17;37.40;;;;;;;1.59;83.36;99679.84;2961920;80;21139;-67
2020/12/10 06:05:38;;;;;;;62.73;37.80;;;;;;;1.65;83.61;99670.81;2962201;80;21142;-66
2020/12/10 06:09:42;;;;;;;78.65;39.53;;;;;;;1.70;83.70;99663.08;2962233;80;21615;-68
2020/12/10 06:13:48;;;;;;;63.48;35.10;;;;;;;1.72;83.42;99665.60;2962266;80;21114;-66
2020/12/10 06:18:12;;;;;;;51.15;32.88;;;;;;;1.72;83.41;99661.67;2962062;80;21605;-65
2020/12/10 06:22:33;;;;;;;52.58;34.00;;;;;;;1.68;83.12;99658.39;2962190;80;21185;-67
2020/12/10 06:26:39;;;;;;;58.50;30.57;;;;;;;1.64;83.08;99654.70;2962002;80;21143;-68
2020/12/10 06:30:46;;;;;;;62.73;33.27;;;;;;;1.61;83.11;99649.15;2962300;80;21542;-66
2020/12/10 06:45:37;;;;;;;67.42;35.45;;;;;;;1.73;83.34;99647.62;3043374;77;22970;-66
2020/12/10 06:49:40;;;;;;;68.45;35.70;;;;;;;1.74;83.36;99646.69;2971152;79;21602;-66
2020/12/10 06:54:07;;;;;;;63.65;37.98;;;;;;;1.74;83.18;99648.00;2970964;79;21082;-67
2020/12/10 07:02:29;;;;;;;66.53;34.63;;;;;;;1.75;83.14;99641.83;3001513;77;21926;-65
2020/12/10 07:06:32;;;;;;;61.85;36.08;;;;;;;1.69;83.04;99646.11;2955438;80;21133;-68
2020/12/10 07:10:51;;;;;;;64.20;38.35;;;;;;;1.71;83.12;99649.48;2955316;80;21153;-66
2020/12/10 07:15:15;;;;;;;75.65;42.13;;;;;;;1.70;83.24;99649.97;2955284;80;21097;-66
2020/12/10 07:19:18;;;;;;;81.97;39.78;;;;;;;1.76;83.47;99651.86;2955410;80;21160;-67
2020/12/10 07:23:23;;;;;;;620.85;353.48;;;;;;;1.80;83.03;99645.52;2955254;79;21132;-67
2020/12/10 07:27:26;;;;;;;137.90;93.78;;;;;;;1.78;82.58;99644.30;2954246;79;21136;-67
2020/12/10 07:31:29;;;;;;;67.80;36.15;;;;;;;1.77;82.69;99642.61;2952195;79;21136;-67
2020/12/10 07:35:36;;;;;;;52.55;35.65;;;;;;;1.75;82.53;99644.45;2932324;80;21126;-65
2020/12/10 07:39:40;;;;;;;228.12;133.30;;;;;;;1.76;82.43;99644.83;2951884;80;21556;-68
2020/12/10 07:43:52;;;;;;;86.05;46.42;;;;;;;1.79;82.17;99636.81;2952113;80;21655;-66
2020/12/10 07:48:02;;;;;;;78.83;44.27;;;;;;;1.80;82.06;99636.33;2951880;80;21185;-68
2020/12/10 07:52:10;;;;;;;75.22;40.33;;;;;;;1.80;82.18;99631.95;2950369;80;21133;-65
2020/12/10 07:56:22;;;;;;;110.48;73.25;;;;;;;1.85;82.46;99627.28;2924474;80;21149;-66
2020/12/10 08:00:28;;;;;;;67.60;33.50;;;;;;;1.86;82.05;99629.42;2954009;80;21655;-66
2020/12/10 08:04:33;;;;;;;57.90;30.55;;;;;;;1.83;82.05;99625.22;2891654;81;21164;-66
2020/12/10 08:08:55;;;;;;;54.27;29.98;;;;;;;1.84;81.93;99614.23;2860534;82;21197;-67
2020/12/10 08:13:12;;;;;;;64.20;35.98;;;;;;;1.86;81.85;99617.62;2849802;83;21197;-67
2020/12/10 08:17:20;;;;;;;58.13;31.17;;;;;;;1.89;81.60;99616.61;2820351;84;21153;-67
2020/12/10 08:21:35;;;;;;;62.17;37.33;;;;;;;1.81;81.44;99617.90;2853871;83;21197;-66
2020/12/10 08:25:42;;;;;;;68.92;36.28;;;;;;;1.78;81.54;99616.77;2818992;84;21524;-65
2020/12/10 08:30:10;;;;;;;85.35;51.08;;;;;;;1.77;81.72;99616.84;2854097;83;21157;-65
2020/12/10 08:34:20;;;;;;;84.13;44.85;;;;;;;1.78;81.84;99614.59;2820016;84;21141;-64
2020/12/10 08:38:23;;;;;;;72.35;33.28;;;;;;;1.75;81.49;99614.29;2854195;83;21177;-64
2020/12/10 08:42:26;;;;;;;57.17;34.67;;;;;;;1.66;81.65;99622.69;2819421;84;21164;-65
2020/12/10 08:46:32;;;;;;;54.65;29.05;;;;;;;1.61;81.88;99615.55;2854482;83;21122;-64
2020/12/10 08:50:39;;;;;;;52.55;31.52;;;;;;;1.63;81.98;99614.99;2820321;84;21134;-64
2020/12/10 08:54:42;;;;;;;103.42;63.20;;;;;;;1.64;82.22;99618.83;2852663;83;21169;-62
2020/12/10 08:58:46;;;;;;;102.82;48.30;;;;;;;1.72;82.20;99611.84;2819821;84;21173;-66
2020/12/10 09:02:48;;;;;;;79.55;48.78;;;;;;;1.79;81.95;99623.70;2846353;82;21185;-63
2020/12/10 09:06:51;;;;;;;75.28;48.30;;;;;;;1.73;81.71;99613.53;2760704;84;21985;-64
2020/12/10 09:10:54;;;;;;;55.12;29.92;;;;;;;1.76;81.72;99609.42;2771776;85;21180;-62
2020/12/10 09:14:57;;;;;;;55.85;30.97;;;;;;;1.79;81.49;99601.41;2772003;85;21987;-62
2020/12/10 09:19:02;;;;;;;50.88;26.20;;;;;;;1.77;81.34;99603.28;2812583;84;21611;-64
2020/12/10 09:23:07;;;;;;;54.10;29.32;;;;;;;1.76;81.16;99609.91;2817598;84;21161;-64
2020/12/10 09:27:10;;;;;;;64.05;33.35;;;;;;;1.71;80.95;99597.05;2818044;84;21164;-65
2020/12/10 09:31:16;;;;;;;65.45;37.63;;;;;;;1.66;81.04;99599.91;2818229;82;21156;-65
2020/12/10 09:35:22;;;;;;;61.08;35.50;;;;;;;1.64;81.66;99591.78;2788523;84;21156;-63
2020/12/10 09:39:28;;;;;;;87.20;48.68;;;;;;;1.69;81.63;99584.48;2814309;84;21156;-64
2020/12/10 09:43:33;;;;;;;110.45;63.20;;;;;;;1.74;81.79;99585.55;2818013;84;21610;-64
2020/12/10 09:47:38;;;;;;;78.37;42.38;;;;;;;1.82;81.87;99576.77;2817958;83;21149;-64
2020/12/10 09:51:51;;;;;;;;;;;;;;;1.89;81.52;99578.58;2820570;84;21164;-64
2020/12/10 10:00:03;;;;;;;70.00;39.78;;;;;;;1.90;81.55;99570.64;2822485;83;21180;-64
2020/12/10 10:04:06;;;;;;;78.75;47.67;;;;;;;1.85;81.17;99570.89;2855406;82;21146;-65
2020/12/10 10:08:10;;;;;;;71.40;41.55;;;;;;;1.80;81.07;99563.77;2853043;83;21153;-65
2020/12/10 10:12:13;;;;;;;81.32;54.42;;;;;;;1.82;80.83;99567.14;2853552;83;21150;-65
2020/12/10 10:16:19;;;;;;;60.67;35.55;;;;;;;1.78;81.11;99563.01;2826779;83;21596;-66
2020/12/10 10:20:23;;;;;;;91.80;60.20;;;;;;;1.78;81.20;99553.83;2826784;83;21137;-66
2020/12/10 10:24:31;;;;;;;61.55;38.38;;;;;;;1.74;81.01;99547.52;2853353;83;21592;-67
2020/12/10 10:28:37;;;;;;;88.45;57.65;;;;;;;1.73;81.26;99551.08;2853418;83;21201;-66
2020/12/10 10:32:41;;;;;;;84.17;57.62;;;;;;;1.68;81.21;99554.81;2850354;82;21967;-65
2020/12/10 10:36:49;;;;;;;73.60;44.77;;;;;;;1.62;81.58;99532.03;2852198;83;21223;-66
2020/12/10 10:40:56;;;;;;;100.67;62.90;;;;;;;1.76;81.64;99545.66;2853051;83;22321;-63
2020/12/10 10:44:58;;;;;;;;;;;;;;;1.75;81.63;99547.42;2856002;83;21165;-65
2020/12/10 10:49:02;;;;;;;79.72;47.35;;;;;;;1.74;81.53;99540.97;2853860;82;20152;-66
2020/12/10 10:53:12;;;;;;;63.38;37.33;;;;;;;1.77;81.69;99539.48;2853411;83;21142;-66
2020/12/10 10:57:20;;;;;;;62.83;40.05;;;;;;;1.77;81.77;99522.44;2845591;83;21781;-66
2020/12/10 11:01:30;;;;;;;99.30;55.88;;;;;;;1.74;81.58;99512.95;2829718;83;21929;-66
2020/12/10 11:05:33;;;;;;;85.22;42.50;;;;;;;1.78;82.10;99497.90;2801456;84;21453;-66
2020/12/10 11:09:41;;;;;;;84.32;37.70;;;;;;;1.78;81.79;99494.83;2801593;84;21139;-66
2020/12/10 11:13:46;;;;;;;72.97;41.05;;;;;;;1.87;82.14;99486.03;2793713;85;21163;-66
2020/12/10 11:17:50;;;;;;;100.72;53.08;;;;;;;1.87;81.96;99486.03;2801338;84;21167;-67
2020/12/10 11:21:56;;;;;;;82.65;44.90;;;;;;;1.94;81.98;99488.66;2801029;85;21131;-67
2020/12/10 11:25:58;;;;;;;80.65;45.80;;;;;;;1.96;81.42;99485.48;2798123;85;21191;-66
2020/12/10 11:30:11;;;;;;;86.85;44.23;;;;;;;1.98;81.33;99482.33;2712731;87;21590;-66
2020/12/10 11:34:14;;;;;;;90.97;42.73;;;;;;;1.94;81.14;99482.96;2726442;87;21631;-68
2020/12/10 11:38:18;;;;;;;119.57;65.05;;;;;;;2.01;81.22;99476.89;2810824;83;21134;-67
2020/12/10 11:42:24;;;;;;;86.67;49.90;;;;;;;2.04;81.18;99478.02;2824564;83;21172;-67
2020/12/10 11:46:29;;;;;;;86.08;43.02;;;;;;;2.09;80.83;99479.89;2776075;84;21544;-66
2020/12/10 11:50:35;;;;;;;75.22;42.48;;;;;;;2.12;80.86;99486.26;2801678;84;21552;-65
2020/12/10 11:54:39;;;;;;;70.32;38.48;;;;;;;2.20;80.66;99483.66;2801471;84;21157;-64
2020/12/10 11:58:44;;;;;;;107.72;58.40;;;;;;;2.25;80.48;99485.53;2801720;84;21157;-66
2020/12/10 12:02:48;;;;;;;95.38;57.30;;;;;;;2.26;80.37;99478.89;2774467;84;21125;-65
2020/12/10 12:06:51;;;;;;;76.85;39.90;;;;;;;2.29;80.53;99477.84;2813920;84;21148;-66
2020/12/10 12:11:04;;;;;;;64.17;35.10;;;;;;;2.36;80.33;99471.31;2813809;84;21184;-65
2020/12/10 12:15:07;;;;;;;59.33;34.50;;;;;;;2.40;80.20;99478.05;2812720;84;21156;-65
2020/12/10 12:19:12;;;;;;;72.97;34.45;;;;;;;2.31;79.88;99473.34;2813749;84;21232;-67
2020/12/10 12:23:20;;;;;;;75.32;37.75;;;;;;;2.29;80.28;99475.22;2809972;84;21128;-63
2020/12/10 12:27:26;;;;;;;70.35;41.15;;;;;;;2.21;80.25;99476.17;2813823;84;21479;-66
2020/12/10 12:31:31;;;;;;;56.50;35.85;;;;;;;2.19;80.73;99471.48;2813912;83;21626;-67
2020/12/10 12:35:39;;;;;;;49.80;31.10;;;;;;;2.23;80.62;99472.49;2812877;84;21551;-65
2020/12/10 12:39:44;;;;;;;;;;;;;;;2.21;80.47;99474.37;2816434;84;21194;-66
2020/12/10 12:43:46;;;;;;;146.50;73.95;;;;;;;2.19;80.85;99478.04;2814144;84;20199;-65
2020/12/10 12:47:56;;;;;;;57.65;31.48;;;;;;;2.11;80.56;99476.70;2809732;84;21177;-69
2020/12/10 12:51:59;;;;;;;56.10;30.00;;;;;;;2.06;80.61;99472.20;2810280;84;21149;-67
2020/12/10 12:56:07;;;;;;;54.45;34.80;;;;;;;2.07;80.50;99479.14;2811539;83;21545;-67
2020/12/10 13:00:10;;;;;;;45.73;26.70;;;;;;;2.05;80.63;99467.89;2815926;84;21169;-67
2020/12/10 13:04:21;;;;;;;47.75;28.17;;;;;;;2.02;80.67;99469.39;2816838;84;21093;-68
2020/12/10 13:08:32;;;;;;;60.23;38.98;;;;;;;2.02;80.91;99468.08;2816439;84;21120;-65
2020/12/10 13:12:35;;;;;;;68.87;41.55;;;;;;;2.03;80.95;99467.59;2812869;84;21586;-64
2020/12/10 13:16:43;;;;;;;56.60;32.60;;;;;;;2.02;80.95;99464.14;2810920;83;21617;-66
2020/12/10 13:20:54;;;;;;;52.23;28.07;;;;;;;2.00;81.14;99468.16;2812666;83;21142;-66
2020/12/10 13:24:57;;;;;;;67.50;40.12;;;;;;;2.08;81.28;99469.02;2798346;83;21211;-65
2020/12/10 13:29:16;;;;;;;57.75;34.13;;;;;;;2.12;81.19;99463.95;2829619;83;21717;-66
2020/12/10 13:33:19;;;;;;;58.65;32.50;;;;;;;2.12;81.23;99465.75;2865995;83;21169;-65
2020/12/10 13:37:24;;;;;;;75.30;43.23;;;;;;;2.19;81.10;99461.81;2862894;83;21198;-68
2020/12/10 13:41:30;;;;;;;58.77;34.17;;;;;;;2.30;81.26;99463.78;2768227;86;21626;-66
2020/12/10 13:45:35;;;;;;;60.28;32.83;;;;;;;2.40;80.78;99458.82;2766729;86;21148;-66
2020/12/10 13:49:39;;;;;;;60.78;33.30;;;;;;;2.37;80.30;99457.25;2767927;86;21168;-66
2020/12/10 13:53:42;;;;;;;66.60;36.50;;;;;;;2.34;80.65;99469.22;2769073;84;21144;-63
2020/12/10 13:57:46;;;;;;;69.80;37.65;;;;;;;2.27;80.65;99467.91;2787573;85;21172;-66
2020/12/10 14:01:58;;;;;;;60.78;37.40;;;;;;;2.25;80.67;99463.23;2787748;85;21171;-68
2020/12/10 14:06:08;;;;;;;74.62;37.90;;;;;;;2.19;80.63;99460.50;2787869;85;21176;-68
2020/12/10 14:10:15;;;;;;;66.12;36.58;;;;;;;2.19;80.91;99463.61;2787661;85;21187;-66
2020/12/10 14:14:18;;;;;;;69.45;41.63;;;;;;;2.19;80.91;99466.23;2788387;85;21167;-66
2020/12/10 14:18:22;;;;;;;77.08;47.05;;;;;;;2.16;80.92;99461.14;2787649;85;21164;-67
2020/12/10 14:22:31;;;;;;;50.03;32.30;;;;;;;2.14;81.12;99462.08;2787425;85;21155;-67
2020/12/10 14:26:35;;;;;;;207.32;109.45;;;;;;;2.16;81.15;99469.88;2787826;85;21171;-66
2020/12/10 14:30:43;;;;;;;172.80;86.47;;;;;;;2.14;81.01;99467.33;2787480;85;21621;-67
2020/12/10 14:34:49;;;;;;;326.60;159.32;;;;;;;2.16;81.18;99471.19;2783865;85;21293;-65
2020/12/10 14:38:57;;;;;;;61.40;31.10;;;;;;;2.15;80.82;99473.44;2787615;85;21224;-65
2020/12/10 14:43:00;;;;;;;;;;;;;;;2.12;80.74;99470.52;2784186;85;21136;-65
2020/12/10 14:47:08;;;;;;;50.08;27.45;;;;;;;2.05;80.60;99470.52;2787294;85;20499;-67
2020/12/10 14:51:14;;;;;;;93.15;48.38;;;;;;;2.00;80.47;99467.33;2787593;85;21641;-64
2020/12/10 14:55:17;;;;;;;97.57;48.10;;;;;;;2.00;80.78;99469.95;2783485;84;21610;-64
2020/12/10 14:59:20;;;;;;;122.17;62.65;;;;;;;2.05;80.91;99463.95;2814333;84;21149;-65
2020/12/10 15:03:26;;;;;;;125.60;63.45;;;;;;;2.11;80.80;99467.52;2808120;84;21152;-66
2020/12/10 15:07:29;;;;;;;87.73;49.57;;;;;;;2.14;80.62;99471.75;2805003;84;21173;-68
2020/12/10 15:11:35;;;;;;;117.17;65.60;;;;;;;2.19;80.79;99468.37;2823493;84;21124;-66
2020/12/10 15:15:40;;;;;;;77.78;43.95;;;;;;;2.28;80.91;99476.16;2904447;81;21546;-66
2020/12/10 15:19:43;;;;;;;68.87;37.00;;;;;;;2.29;80.63;99476.53;2904576;81;21109;-67
2020/12/10 15:23:52;;;;;;;60.00;31.37;;;;;;;2.30;80.54;99477.39;2904703;81;21180;-66
2020/12/10 15:27:58;;;;;;;43.70;24.70;;;;;;;2.31;80.17;99477.28;2884370;80;21607;-64
2020/12/10 15:32:03;;;;;;;61.75;24.25;;;;;;;2.26;79.88;99485.91;2877357;82;21595;-66
2020/12/10 15:36:11;;;;;;;42.90;27.20;;;;;;;2.14;79.98;99490.94;2880442;81;21121;-64
2020/12/10 15:40:14;;;;;;;56.02;27.45;;;;;;;2.06;79.94;99490.56;2880583;82;21153;-68
2020/12/10 15:44:21;;;;;;;42.50;26.70;;;;;;;1.97;80.20;99487.19;2880467;82;21511;-66
2020/12/10 15:48:26;;;;;;;42.65;26.23;;;;;;;1.91;80.22;99481.84;2880269;82;21156;-67
2020/12/10 15:52:37;;;;;;;49.10;26.85;;;;;;;1.88;80.25;99491.20;2877571;82;21133;-65
2020/12/10 15:56:42;;;;;;;58.08;36.77;;;;;;;1.85;80.59;99486.97;2880213;82;21579;-64
2020/12/10 16:00:46;;;;;;;52.48;32.73;;;;;;;1.88;80.80;99485.09;2813976;84;21191;-66
2020/12/10 16:04:49;;;;;;;62.03;32.95;;;;;;;1.88;80.65;99479.84;2838237;83;21637;-67
2020/12/10 16:08:57;;;;;;;44.80;27.73;;;;;;;1.87;80.80;99484.72;2840896;83;21167;-67
2020/12/10 16:13:11;;;;;;;58.33;26.95;;;;;;;1.86;80.99;99475.98;2838085;83;21171;-66
2020/12/10 16:17:24;;;;;;;46.28;28.30;;;;;;;1.89;80.93;99478.46;2841416;83;21644;-65
2020/12/10 16:21:28;;;;;;;61.18;32.70;;;;;;;1.89;80.93;99478.46;2839330;83;21144;-65
2020/12/10 16:25:31;;;;;;;59.83;35.75;;;;;;;1.95;81.12;99479.85;2840909;83;21284;-67
2020/12/10 16:29:36;;;;;;;61.08;32.25;;;;;;;2.02;80.83;99484.27;2841031;83;21191;-66
2020/12/10 16:33:41;;;;;;;89.60;49.48;;;;;;;2.05;80.98;99479.70;2840730;83;21155;-64
2020/12/10 16:37:44;;;;;;;77.90;36.63;;;;;;;2.07;80.88;99480.45;2840642;83;21637;-65
2020/12/10 16:41:47;;;;;;;58.10;30.95;;;;;;;2.07;80.96;99477.83;2841134;83;21143;-68
2020/12/10 16:45:50;;;;;;;55.33;29.57;;;;;;;2.13;80.97;99473.52;2840980;83;21159;-65
2020/12/10 16:49:53;;;;;;;61.90;33.45;;;;;;;2.16;80.99;99475.58;2840687;83;21657;-65
2020/12/10 16:53:56;;;;;;;60.90;34.55;;;;;;;2.21;80.94;99477.48;2840824;83;21207;-67
2020/12/10 16:58:01;;;;;;;77.72;33.53;;;;;;;2.23;80.90;99472.49;2839587;83;21156;-65
2020/12/10 17:02:04;;;;;;;59.27;37.88;;;;;;;2.26;80.86;99480.20;2840448;83;21179;-67
2020/12/10 17:06:07;;;;;;;78.37;42.43;;;;;;;2.26;80.57;99480.66;2840769;83;21140;-67
2020/12/10 17:10:10;;;;;;;62.43;41.63;;;;;;;2.26;80.46;99479.34;2840821;83;21634;-64
2020/12/10 17:14:13;;;;;;;72.22;35.68;;;;;;;2.25;80.35;99488.16;2840879;83;21187;-67
2020/12/10 17:18:16;;;;;;;59.88;37.03;;;;;;;2.26;80.26;99484.59;2840753;83;21440;-67
2020/12/10 17:22:19;;;;;;;62.48;33.15;;;;;;;2.35;80.30;99483.20;2840722;83;21140;-66
2020/12/10 17:26:30;;;;;;;70.50;35.80;;;;;;;2.38;80.11;99486.49;2840659;83;21167;-67
2020/12/10 17:30:33;;;;;;;63.33;38.15;;;;;;;2.38;80.08;99485.18;2848298;83;21131;-64
2020/12/10 17:34:36;;;;;;;69.50;40.25;;;;;;;2.41;80.29;99486.75;2853525;83;21143;-65
2020/12/10 17:38:39;;;;;;;71.10;36.90;;;;;;;2.47;80.34;99486.41;2853370;83;21167;-63
2020/12/10 17:42:42;;;;;;;56.58;38.33;;;;;;;2.55;80.20;99485.91;2853534;83;21190;-67
2020/12/10 17:46:46;;;;;;;60.10;32.55;;;;;;;2.57;79.92;99487.52;2853296;83;21163;-65
2020/12/10 17:50:49;;;;;;;61.33;32.53;;;;;;;2.54;79.45;99485.08;2853367;83;21178;-66
2020/12/10 17:54:53;;;;;;;75.05;38.83;;;;;;;2.54;79.46;99481.59;2853399;83;21614;-66
2020/12/10 17:58:56;;;;;;;66.85;36.73;;;;;;;2.53;79.50;99480.77;2853331;83;21700;-67
2020/12/10 18:03:02;;;;;;;67.65;37.03;;;;;;;2.55;79.63;99485.45;2878168;82;21125;-68
2020/12/10 18:07:05;;;;;;;66.22;36.80;;;;;;;2.59;79.58;99493.99;2849129;83;21177;-65
2020/12/10 18:11:09;;;;;;;57.83;34.70;;;;;;;2.58;79.41;99491.00;2850196;83;21149;-68
2020/12/10 18:15:12;;;;;;;75.30;43.83;;;;;;;2.58;79.46;99494.94;2807568;84;21167;-67
2020/12/10 18:19:15;;;;;;;72.25;37.28;;;;;;;2.59;79.18;99499.70;2852406;83;21173;-67
2020/12/10 18:23:20;;;;;;;70.83;37.13;;;;;;;2.50;79.50;99502.41;2827158;83;21166;-68
2020/12/10 18:27:22;;;;;;;68.60;36.88;;;;;;;2.49;79.65;99504.67;2808282;84;21173;-67
2020/12/10 18:31:29;;;;;;;62.58;34.67;;;;;;;2.47;79.86;99503.47;2834535;81;21171;-68
2020/12/10 18:35:32;;;;;;;68.83;38.63;;;;;;;2.51;79.94;99498.85;2824409;83;21154;-67
2020/12/10 18:39:35;;;;;;;78.07;38.25;;;;;;;2.50;79.83;99503.73;2805479;83;21161;-68
2020/12/10 18:43:39;;;;;;;68.42;40.58;;;;;;;2.51;79.76;99506.73;2841114;81;21189;-67
2020/12/10 18:47:43;;;;;;;109.78;60.45;;;;;;;2.48;79.97;99502.98;2807970;83;21173;-66
2020/12/10 18:51:46;;;;;;;94.00;54.13;;;;;;;2.46;79.90;99507.03;2806262;84;21253;-67
2020/12/10 18:55:50;;;;;;;105.43;61.60;;;;;;;2.39;80.12;99505.70;2820346;84;22252;-67
2020/12/10 18:59:53;;;;;;;103.10;59.13;;;;;;;2.38;80.24;99503.55;2802365;84;21149;-66
2020/12/10 19:03:57;;;;;;;162.18;83.05;;;;;;;2.38;80.27;99502.24;2842490;83;21136;-67
2020/12/10 19:08:02;;;;;;;186.43;94.95;;;;;;;2.34;80.12;99501.20;2840402;83;21163;-66
2020/12/10 19:12:05;;;;;;;172.60;86.35;;;;;;;2.26;80.31;99506.91;2840449;83;21167;-66
2020/12/10 19:16:14;;;;;;;94.03;50.98;;;;;;;2.26;80.67;99508.22;2840396;83;21590;-66
2020/12/10 19:20:17;;;;;;;164.37;73.97;;;;;;;2.29;80.54;99510.66;2840799;83;21147;-65
2020/12/10 19:24:20;;;;;;;132.67;68.60;;;;;;;2.37;80.54;99507.12;2840604;83;22253;-65